sensor_id;sensor_type;location;lat;lon;timestamp;P1;durP1;ratioP1;P2;durP2;ratioP2
58152;SDS011;43967;51.634;5.566;2024-03-02T00:01:36;5.05;;;1.40;;
58152;SDS011;43967;51.634;5.566;2024-03-02T00:06:58;5.23;;;1.10;;
58152;SDS011;43967;51.634;5.566;2024-03-02T00:12:19;5.78;;;1.40;;
58152;SDS011;43967;51.634;5.566;2024-03-02T00:17:40;3.85;;;1.15;;
58152;SDS011;43967;51.634;5.566;2024-03-02T00:23:05;6.90;;;1.40;;
58152;SDS011;43967;51.634;5.566;2024-03-02T00:28:29;6.57;;;1.73;;
58152;SDS011;43967;51.634;5.566;2024-03-02T00:33:52;5.75;;;1.35;;
58152;SDS011;43967;51.634;5.566;2024-03-02T00:39:14;4.95;;;1.30;;
58152;SDS011;43967;51.634;5.566;2024-03-02T00:44:36;6.03;;;1.23;;
58152;SDS011;43967;51.634;5.566;2024-03-02T00:49:58;5.60;;;1.35;;
58152;SDS011;43967;51.634;5.566;2024-03-02T00:55:19;4.55;;;1.20;;
58152;SDS011;43967;51.634;5.566;2024-03-02T01:00:40;5.33;;;1.30;;
58152;SDS011;43967;51.634;5.566;2024-03-02T01:06:02;4.43;;;1.17;;
58152;SDS011;43967;51.634;5.566;2024-03-02T01:11:23;5.68;;;1.42;;
58152;SDS011;43967;51.634;5.566;2024-03-02T01:16:45;4.80;;;1.10;;
58152;SDS011;43967;51.634;5.566;2024-03-02T01:22:06;4.03;;;1.13;;
58152;SDS011;43967;51.634;5.566;2024-03-02T01:27:27;4.13;;;1.30;;
58152;SDS011;43967;51.634;5.566;2024-03-02T01:32:48;5.85;;;1.20;;
58152;SDS011;43967;51.634;5.566;2024-03-02T01:38:10;4.57;;;1.13;;
58152;SDS011;43967;51.634;5.566;2024-03-02T01:43:31;6.47;;;1.20;;
58152;SDS011;43967;51.634;5.566;2024-03-02T01:48:52;6.00;;;1.20;;
58152;SDS011;43967;51.634;5.566;2024-03-02T01:54:14;5.07;;;1.10;;
58152;SDS011;43967;51.634;5.566;2024-03-02T01:59:35;5.25;;;1.20;;
58152;SDS011;43967;51.634;5.566;2024-03-02T02:04:56;5.10;;;1.05;;
58152;SDS011;43967;51.634;5.566;2024-03-02T02:10:18;3.97;;;1.27;;
58152;SDS011;43967;51.634;5.566;2024-03-02T02:15:39;4.90;;;1.20;;
58152;SDS011;43967;51.634;5.566;2024-03-02T02:21:00;5.38;;;1.17;;
58152;SDS011;43967;51.634;5.566;2024-03-02T02:26:21;4.25;;;1.27;;
58152;SDS011;43967;51.634;5.566;2024-03-02T02:31:43;3.50;;;0.90;;
58152;SDS011;43967;51.634;5.566;2024-03-02T02:37:04;4.97;;;1.35;;
58152;SDS011;43967;51.634;5.566;2024-03-02T02:42:25;3.72;;;1.08;;
58152;SDS011;43967;51.634;5.566;2024-03-02T02:47:47;4.17;;;1.13;;
58152;SDS011;43967;51.634;5.566;2024-03-02T02:53:08;3.70;;;1.20;;
58152;SDS011;43967;51.634;5.566;2024-03-02T02:58:30;4.45;;;1.27;;
58152;SDS011;43967;51.634;5.566;2024-03-02T03:03:51;3.80;;;1.00;;
58152;SDS011;43967;51.634;5.566;2024-03-02T03:09:12;3.87;;;0.97;;
58152;SDS011;43967;51.634;5.566;2024-03-02T03:14:33;5.47;;;1.42;;
58152;SDS011;43967;51.634;5.566;2024-03-02T03:19:55;3.92;;;1.13;;
58152;SDS011;43967;51.634;5.566;2024-03-02T03:25:16;4.07;;;1.27;;
58152;SDS011;43967;51.634;5.566;2024-03-02T03:30:37;4.15;;;1.10;;
58152;SDS011;43967;51.634;5.566;2024-03-02T03:35:59;3.97;;;1.15;;
58152;SDS011;43967;51.634;5.566;2024-03-02T03:41:21;4.13;;;1.27;;
58152;SDS011;43967;51.634;5.566;2024-03-02T03:46:42;3.67;;;1.13;;
58152;SDS011;43967;51.634;5.566;2024-03-02T03:52:03;4.03;;;1.20;;
58152;SDS011;43967;51.634;5.566;2024-03-02T03:57:25;3.90;;;1.10;;
58152;SDS011;43967;51.634;5.566;2024-03-02T04:02:46;3.67;;;1.00;;
58152;SDS011;43967;51.634;5.566;2024-03-02T04:08:07;4.13;;;1.13;;
58152;SDS011;43967;51.634;5.566;2024-03-02T04:13:29;3.50;;;1.13;;
58152;SDS011;43967;51.634;5.566;2024-03-02T04:18:50;3.70;;;0.90;;
58152;SDS011;43967;51.634;5.566;2024-03-02T04:24:11;3.78;;;1.27;;
58152;SDS011;43967;51.634;5.566;2024-03-02T04:29:32;2.92;;;0.90;;
58152;SDS011;43967;51.634;5.566;2024-03-02T04:34:54;3.57;;;0.90;;
58152;SDS011;43967;51.634;5.566;2024-03-02T04:40:15;3.30;;;1.00;;
58152;SDS011;43967;51.634;5.566;2024-03-02T04:45:38;3.65;;;1.10;;
58152;SDS011;43967;51.634;5.566;2024-03-02T04:50:59;2.87;;;0.87;;
58152;SDS011;43967;51.634;5.566;2024-03-02T04:56:20;3.37;;;1.20;;
58152;SDS011;43967;51.634;5.566;2024-03-02T05:01:42;3.60;;;1.08;;
58152;SDS011;43967;51.634;5.566;2024-03-02T05:07:03;3.35;;;0.95;;
58152;SDS011;43967;51.634;5.566;2024-03-02T05:12:24;3.53;;;0.97;;
58152;SDS011;43967;51.634;5.566;2024-03-02T05:17:46;3.90;;;1.35;;
58152;SDS011;43967;51.634;5.566;2024-03-02T05:23:07;3.58;;;1.15;;
58152;SDS011;43967;51.634;5.566;2024-03-02T05:28:28;3.90;;;1.20;;
58152;SDS011;43967;51.634;5.566;2024-03-02T05:33:49;2.92;;;0.88;;
58152;SDS011;43967;51.634;5.566;2024-03-02T05:39:11;3.53;;;1.00;;
58152;SDS011;43967;51.634;5.566;2024-03-02T05:44:32;3.90;;;1.10;;
58152;SDS011;43967;51.634;5.566;2024-03-02T05:49:53;4.47;;;1.20;;
58152;SDS011;43967;51.634;5.566;2024-03-02T05:55:14;3.08;;;0.85;;
58152;SDS011;43967;51.634;5.566;2024-03-02T06:00:36;3.17;;;0.90;;
58152;SDS011;43967;51.634;5.566;2024-03-02T06:05:57;3.17;;;1.00;;
58152;SDS011;43967;51.634;5.566;2024-03-02T06:11:21;3.17;;;0.95;;
58152;SDS011;43967;51.634;5.566;2024-03-02T06:16:42;3.60;;;0.77;;
58152;SDS011;43967;51.634;5.566;2024-03-02T06:22:03;3.33;;;1.00;;
58152;SDS011;43967;51.634;5.566;2024-03-02T06:27:25;3.75;;;1.00;;
58152;SDS011;43967;51.634;5.566;2024-03-02T06:32:46;3.40;;;0.90;;
58152;SDS011;43967;51.634;5.566;2024-03-02T06:38:07;4.23;;;1.10;;
58152;SDS011;43967;51.634;5.566;2024-03-02T06:43:28;3.53;;;1.10;;
58152;SDS011;43967;51.634;5.566;2024-03-02T06:48:50;3.05;;;0.90;;
58152;SDS011;43967;51.634;5.566;2024-03-02T06:54:11;3.25;;;1.00;;
58152;SDS011;43967;51.634;5.566;2024-03-02T06:59:32;2.90;;;0.90;;
58152;SDS011;43967;51.634;5.566;2024-03-02T07:04:54;3.50;;;0.90;;
58152;SDS011;43967;51.634;5.566;2024-03-02T07:10:15;2.67;;;0.70;;
58152;SDS011;43967;51.634;5.566;2024-03-02T07:15:36;3.93;;;1.00;;
58152;SDS011;43967;51.634;5.566;2024-03-02T07:20:57;4.05;;;0.90;;
58152;SDS011;43967;51.634;5.566;2024-03-02T07:26:19;3.80;;;1.02;;
58152;SDS011;43967;51.634;5.566;2024-03-02T07:31:40;3.57;;;1.00;;
58152;SDS011;43967;51.634;5.566;2024-03-02T07:37:01;3.60;;;1.00;;
58152;SDS011;43967;51.634;5.566;2024-03-02T07:42:23;4.30;;;1.10;;
58152;SDS011;43967;51.634;5.566;2024-03-02T07:47:44;3.40;;;0.80;;
58152;SDS011;43967;51.634;5.566;2024-03-02T07:53:06;3.50;;;0.80;;
58152;SDS011;43967;51.634;5.566;2024-03-02T07:58:28;3.30;;;0.93;;
58152;SDS011;43967;51.634;5.566;2024-03-02T08:03:49;3.80;;;0.90;;
58152;SDS011;43967;51.634;5.566;2024-03-02T08:09:11;3.07;;;0.90;;
58152;SDS011;43967;51.634;5.566;2024-03-02T08:14:32;3.88;;;0.95;;
58152;SDS011;43967;51.634;5.566;2024-03-02T08:19:53;4.05;;;0.80;;
58152;SDS011;43967;51.634;5.566;2024-03-02T08:25:15;4.27;;;1.03;;
58152;SDS011;43967;51.634;5.566;2024-03-02T08:30:36;4.10;;;1.10;;
58152;SDS011;43967;51.634;5.566;2024-03-02T08:35:57;5.95;;;1.05;;
58152;SDS011;43967;51.634;5.566;2024-03-02T08:41:19;6.63;;;1.15;;
58152;SDS011;43967;51.634;5.566;2024-03-02T08:46:40;6.73;;;1.10;;
58152;SDS011;43967;51.634;5.566;2024-03-02T08:52:02;7.57;;;1.20;;
58152;SDS011;43967;51.634;5.566;2024-03-02T08:57:23;5.38;;;0.93;;
58152;SDS011;43967;51.634;5.566;2024-03-02T09:02:44;5.23;;;1.30;;
58152;SDS011;43967;51.634;5.566;2024-03-02T09:08:06;7.53;;;1.30;;
58152;SDS011;43967;51.634;5.566;2024-03-02T09:13:28;6.68;;;1.10;;
58152;SDS011;43967;51.634;5.566;2024-03-02T09:18:50;7.03;;;1.47;;
58152;SDS011;43967;51.634;5.566;2024-03-02T09:24:11;5.20;;;1.10;;
58152;SDS011;43967;51.634;5.566;2024-03-02T09:29:32;7.93;;;1.00;;
58152;SDS011;43967;51.634;5.566;2024-03-02T09:34:53;6.38;;;1.40;;
58152;SDS011;43967;51.634;5.566;2024-03-02T09:40:15;6.37;;;1.40;;
58152;SDS011;43967;51.634;5.566;2024-03-02T09:45:36;7.30;;;1.00;;
58152;SDS011;43967;51.634;5.566;2024-03-02T09:50:57;7.80;;;1.13;;
58152;SDS011;43967;51.634;5.566;2024-03-02T09:56:21;5.10;;;1.23;;
58152;SDS011;43967;51.634;5.566;2024-03-02T10:01:55;4.03;;;1.00;;
58152;SDS011;43967;51.634;5.566;2024-03-02T10:07:18;5.55;;;1.30;;
58152;SDS011;43967;51.634;5.566;2024-03-02T10:12:39;5.07;;;1.00;;
58152;SDS011;43967;51.634;5.566;2024-03-02T10:18:01;5.70;;;1.17;;
58152;SDS011;43967;51.634;5.566;2024-03-02T10:23:22;7.15;;;1.40;;
58152;SDS011;43967;51.634;5.566;2024-03-02T10:28:46;8.57;;;1.23;;
58152;SDS011;43967;51.634;5.566;2024-03-02T10:34:08;13.77;;;1.40;;
58152;SDS011;43967;51.634;5.566;2024-03-02T10:39:30;5.80;;;1.17;;
58152;SDS011;43967;51.634;5.566;2024-03-02T10:44:51;5.78;;;1.10;;
58152;SDS011;43967;51.634;5.566;2024-03-02T10:50:13;6.17;;;1.20;;
58152;SDS011;43967;51.634;5.566;2024-03-02T10:55:35;5.95;;;1.10;;
58152;SDS011;43967;51.634;5.566;2024-03-02T11:00:56;9.45;;;1.75;;
58152;SDS011;43967;51.634;5.566;2024-03-02T11:06:19;5.37;;;1.30;;
58152;SDS011;43967;51.634;5.566;2024-03-02T11:11:42;5.00;;;1.07;;
58152;SDS011;43967;51.634;5.566;2024-03-02T11:17:04;6.30;;;1.50;;
58152;SDS011;43967;51.634;5.566;2024-03-02T11:22:26;6.75;;;1.50;;
58152;SDS011;43967;51.634;5.566;2024-03-02T11:33:08;5.97;;;1.20;;
58152;SDS011;43967;51.634;5.566;2024-03-02T11:38:31;5.68;;;1.13;;
58152;SDS011;43967;51.634;5.566;2024-03-02T11:43:53;5.13;;;1.20;;
58152;SDS011;43967;51.634;5.566;2024-03-02T11:49:14;6.22;;;1.20;;
58152;SDS011;43967;51.634;5.566;2024-03-02T11:54:39;6.40;;;1.52;;
58152;SDS011;43967;51.634;5.566;2024-03-02T12:00:02;6.50;;;1.40;;
58152;SDS011;43967;51.634;5.566;2024-03-02T12:05:24;5.43;;;1.00;;
58152;SDS011;43967;51.634;5.566;2024-03-02T12:11:01;5.55;;;1.20;;
58152;SDS011;43967;51.634;5.566;2024-03-02T12:16:23;8.00;;;1.48;;
58152;SDS011;43967;51.634;5.566;2024-03-02T12:21:45;6.20;;;1.00;;
58152;SDS011;43967;51.634;5.566;2024-03-02T12:27:07;5.00;;;1.02;;
58152;SDS011;43967;51.634;5.566;2024-03-02T12:32:28;5.30;;;1.20;;
58152;SDS011;43967;51.634;5.566;2024-03-02T12:37:50;4.60;;;1.10;;
58152;SDS011;43967;51.634;5.566;2024-03-02T12:43:12;6.50;;;1.42;;
58152;SDS011;43967;51.634;5.566;2024-03-02T12:48:34;6.55;;;1.30;;
58152;SDS011;43967;51.634;5.566;2024-03-02T12:53:59;5.00;;;1.30;;
58152;SDS011;43967;51.634;5.566;2024-03-02T12:59:21;8.37;;;1.40;;
58152;SDS011;43967;51.634;5.566;2024-03-02T13:04:44;9.40;;;1.77;;
58152;SDS011;43967;51.634;5.566;2024-03-02T13:10:13;6.72;;;1.38;;
58152;SDS011;43967;51.634;5.566;2024-03-02T13:15:35;7.77;;;1.60;;
58152;SDS011;43967;51.634;5.566;2024-03-02T13:20:56;8.48;;;1.77;;
58152;SDS011;43967;51.634;5.566;2024-03-02T13:26:18;7.93;;;1.55;;
58152;SDS011;43967;51.634;5.566;2024-03-02T13:31:39;7.80;;;1.33;;
58152;SDS011;43967;51.634;5.566;2024-03-02T13:37:00;7.93;;;1.75;;
58152;SDS011;43967;51.634;5.566;2024-03-02T13:42:22;6.95;;;1.38;;
58152;SDS011;43967;51.634;5.566;2024-03-02T13:47:43;7.70;;;1.73;;
58152;SDS011;43967;51.634;5.566;2024-03-02T13:53:05;12.27;;;1.40;;
58152;SDS011;43967;51.634;5.566;2024-03-02T13:58:26;8.23;;;1.40;;
58152;SDS011;43967;51.634;5.566;2024-03-02T14:03:47;6.30;;;1.40;;
58152;SDS011;43967;51.634;5.566;2024-03-02T14:09:09;7.53;;;1.47;;
58152;SDS011;43967;51.634;5.566;2024-03-02T14:14:30;6.40;;;1.20;;
58152;SDS011;43967;51.634;5.566;2024-03-02T14:19:51;6.40;;;1.40;;
58152;SDS011;43967;51.634;5.566;2024-03-02T14:25:12;5.77;;;1.47;;
58152;SDS011;43967;51.634;5.566;2024-03-02T14:30:34;6.10;;;1.48;;
58152;SDS011;43967;51.634;5.566;2024-03-02T14:35:55;6.32;;;1.20;;
58152;SDS011;43967;51.634;5.566;2024-03-02T14:41:16;7.17;;;1.20;;
58152;SDS011;43967;51.634;5.566;2024-03-02T14:46:38;7.23;;;1.30;;
58152;SDS011;43967;51.634;5.566;2024-03-02T14:51:59;5.40;;;1.33;;
58152;SDS011;43967;51.634;5.566;2024-03-02T14:57:20;7.22;;;1.40;;
58152;SDS011;43967;51.634;5.566;2024-03-02T15:02:42;7.47;;;1.33;;
58152;SDS011;43967;51.634;5.566;2024-03-02T15:08:03;6.20;;;1.50;;
58152;SDS011;43967;51.634;5.566;2024-03-02T15:13:25;11.90;;;1.63;;
58152;SDS011;43967;51.634;5.566;2024-03-02T15:18:46;7.43;;;1.30;;
58152;SDS011;43967;51.634;5.566;2024-03-02T15:24:07;7.18;;;1.17;;
58152;SDS011;43967;51.634;5.566;2024-03-02T15:29:29;7.50;;;1.60;;
58152;SDS011;43967;51.634;5.566;2024-03-02T15:34:50;5.93;;;1.10;;
58152;SDS011;43967;51.634;5.566;2024-03-02T15:40:11;6.33;;;1.17;;
58152;SDS011;43967;51.634;5.566;2024-03-02T15:45:32;6.18;;;1.27;;
58152;SDS011;43967;51.634;5.566;2024-03-02T15:50:54;6.05;;;1.25;;
58152;SDS011;43967;51.634;5.566;2024-03-02T15:56:15;7.37;;;1.30;;
58152;SDS011;43967;51.634;5.566;2024-03-02T16:01:36;8.35;;;1.60;;
58152;SDS011;43967;51.634;5.566;2024-03-02T16:06:57;6.78;;;1.30;;
58152;SDS011;43967;51.634;5.566;2024-03-02T16:12:19;6.10;;;1.37;;
58152;SDS011;43967;51.634;5.566;2024-03-02T16:17:40;5.85;;;1.30;;
58152;SDS011;43967;51.634;5.566;2024-03-02T16:23:01;6.20;;;1.35;;
58152;SDS011;43967;51.634;5.566;2024-03-02T16:28:22;6.27;;;1.30;;
58152;SDS011;43967;51.634;5.566;2024-03-02T16:33:44;5.47;;;1.20;;
58152;SDS011;43967;51.634;5.566;2024-03-02T16:39:05;4.38;;;1.08;;
58152;SDS011;43967;51.634;5.566;2024-03-02T16:44:26;4.72;;;1.10;;
58152;SDS011;43967;51.634;5.566;2024-03-02T16:49:48;4.93;;;1.20;;
58152;SDS011;43967;51.634;5.566;2024-03-02T16:55:09;5.70;;;1.20;;
58152;SDS011;43967;51.634;5.566;2024-03-02T17:00:30;6.95;;;1.20;;
58152;SDS011;43967;51.634;5.566;2024-03-02T17:05:52;6.90;;;1.20;;
58152;SDS011;43967;51.634;5.566;2024-03-02T17:11:13;3.60;;;0.93;;
58152;SDS011;43967;51.634;5.566;2024-03-02T17:16:34;5.20;;;1.08;;
58152;SDS011;43967;51.634;5.566;2024-03-02T17:21:55;4.57;;;1.07;;
58152;SDS011;43967;51.634;5.566;2024-03-02T17:27:17;4.93;;;1.20;;
58152;SDS011;43967;51.634;5.566;2024-03-02T17:32:38;4.75;;;1.25;;
58152;SDS011;43967;51.634;5.566;2024-03-02T17:37:59;5.38;;;1.30;;
58152;SDS011;43967;51.634;5.566;2024-03-02T17:43:21;4.03;;;1.00;;
58152;SDS011;43967;51.634;5.566;2024-03-02T17:48:42;4.75;;;1.30;;
58152;SDS011;43967;51.634;5.566;2024-03-02T17:54:03;5.45;;;1.25;;
58152;SDS011;43967;51.634;5.566;2024-03-02T17:59:24;4.97;;;1.50;;
58152;SDS011;43967;51.634;5.566;2024-03-02T18:04:46;5.10;;;1.35;;
58152;SDS011;43967;51.634;5.566;2024-03-02T18:10:07;5.22;;;1.10;;
58152;SDS011;43967;51.634;5.566;2024-03-02T18:15:28;4.13;;;1.10;;
58152;SDS011;43967;51.634;5.566;2024-03-02T18:20:50;4.50;;;1.20;;
58152;SDS011;43967;51.634;5.566;2024-03-02T18:26:11;4.22;;;1.08;;
58152;SDS011;43967;51.634;5.566;2024-03-02T18:31:32;6.18;;;1.30;;
58152;SDS011;43967;51.634;5.566;2024-03-02T18:36:53;4.33;;;1.23;;
58152;SDS011;43967;51.634;5.566;2024-03-02T18:42:15;4.32;;;1.27;;
58152;SDS011;43967;51.634;5.566;2024-03-02T18:47:36;5.25;;;1.10;;
58152;SDS011;43967;51.634;5.566;2024-03-02T18:52:58;4.60;;;1.33;;
58152;SDS011;43967;51.634;5.566;2024-03-02T18:58:19;4.65;;;1.17;;
58152;SDS011;43967;51.634;5.566;2024-03-02T19:03:40;4.20;;;1.30;;
58152;SDS011;43967;51.634;5.566;2024-03-02T19:09:02;4.20;;;1.23;;
58152;SDS011;43967;51.634;5.566;2024-03-02T19:14:23;6.30;;;1.20;;
58152;SDS011;43967;51.634;5.566;2024-03-02T19:19:44;4.50;;;1.23;;
58152;SDS011;43967;51.634;5.566;2024-03-02T19:25:08;5.35;;;1.52;;
58152;SDS011;43967;51.634;5.566;2024-03-02T19:30:30;3.93;;;1.10;;
58152;SDS011;43967;51.634;5.566;2024-03-02T19:35:52;4.88;;;1.58;;
58152;SDS011;43967;51.634;5.566;2024-03-02T19:41:13;4.68;;;1.30;;
58152;SDS011;43967;51.634;5.566;2024-03-02T19:46:34;4.13;;;1.23;;
58152;SDS011;43967;51.634;5.566;2024-03-02T19:51:55;5.07;;;1.40;;
58152;SDS011;43967;51.634;5.566;2024-03-02T19:57:17;5.88;;;1.40;;
58152;SDS011;43967;51.634;5.566;2024-03-02T20:02:38;4.97;;;1.50;;
58152;SDS011;43967;51.634;5.566;2024-03-02T20:08:00;4.83;;;1.10;;
58152;SDS011;43967;51.634;5.566;2024-03-02T20:13:21;4.78;;;1.20;;
58152;SDS011;43967;51.634;5.566;2024-03-02T20:18:42;4.45;;;1.38;;
58152;SDS011;43967;51.634;5.566;2024-03-02T20:24:04;4.43;;;1.30;;
58152;SDS011;43967;51.634;5.566;2024-03-02T20:29:25;4.82;;;1.40;;
58152;SDS011;43967;51.634;5.566;2024-03-02T20:34:46;4.95;;;1.20;;
58152;SDS011;43967;51.634;5.566;2024-03-02T20:40:08;5.23;;;1.17;;
58152;SDS011;43967;51.634;5.566;2024-03-02T20:45:29;4.55;;;1.23;;
58152;SDS011;43967;51.634;5.566;2024-03-02T20:50:50;5.25;;;1.45;;
58152;SDS011;43967;51.634;5.566;2024-03-02T20:56:12;5.97;;;1.40;;
58152;SDS011;43967;51.634;5.566;2024-03-02T21:01:33;4.40;;;1.20;;
58152;SDS011;43967;51.634;5.566;2024-03-02T21:06:54;4.72;;;1.63;;
58152;SDS011;43967;51.634;5.566;2024-03-02T21:12:16;4.75;;;1.40;;
58152;SDS011;43967;51.634;5.566;2024-03-02T21:17:37;5.00;;;1.23;;
58152;SDS011;43967;51.634;5.566;2024-03-02T21:22:58;4.80;;;1.40;;
58152;SDS011;43967;51.634;5.566;2024-03-02T21:28:19;5.10;;;1.48;;
58152;SDS011;43967;51.634;5.566;2024-03-02T21:33:41;5.40;;;2.00;;
58152;SDS011;43967;51.634;5.566;2024-03-02T21:39:02;5.13;;;1.50;;
58152;SDS011;43967;51.634;5.566;2024-03-02T21:44:23;4.38;;;1.50;;
58152;SDS011;43967;51.634;5.566;2024-03-02T21:49:45;5.27;;;1.53;;
58152;SDS011;43967;51.634;5.566;2024-03-02T21:55:06;5.10;;;1.70;;
58152;SDS011;43967;51.634;5.566;2024-03-02T22:00:28;5.20;;;1.77;;
58152;SDS011;43967;51.634;5.566;2024-03-02T22:05:49;5.10;;;1.50;;
58152;SDS011;43967;51.634;5.566;2024-03-02T22:11:10;4.50;;;1.37;;
58152;SDS011;43967;51.634;5.566;2024-03-02T22:16:32;4.63;;;1.05;;
58152;SDS011;43967;51.634;5.566;2024-03-02T22:21:53;5.50;;;1.40;;
58152;SDS011;43967;51.634;5.566;2024-03-02T22:27:14;5.90;;;1.80;;
58152;SDS011;43967;51.634;5.566;2024-03-02T22:32:35;5.53;;;1.70;;
58152;SDS011;43967;51.634;5.566;2024-03-02T22:37:57;5.20;;;1.63;;
58152;SDS011;43967;51.634;5.566;2024-03-02T22:43:18;5.03;;;1.53;;
58152;SDS011;43967;51.634;5.566;2024-03-02T22:48:39;5.03;;;1.40;;
58152;SDS011;43967;51.634;5.566;2024-03-02T22:54:00;4.43;;;1.38;;
58152;SDS011;43967;51.634;5.566;2024-03-02T22:59:22;5.03;;;1.48;;
58152;SDS011;43967;51.634;5.566;2024-03-02T23:04:43;4.70;;;1.30;;
58152;SDS011;43967;51.634;5.566;2024-03-02T23:10:05;4.25;;;1.20;;
58152;SDS011;43967;51.634;5.566;2024-03-02T23:15:26;4.93;;;1.55;;
58152;SDS011;43967;51.634;5.566;2024-03-02T23:20:48;4.80;;;1.33;;
58152;SDS011;43967;51.634;5.566;2024-03-02T23:26:09;4.90;;;1.27;;
58152;SDS011;43967;51.634;5.566;2024-03-02T23:31:31;4.70;;;1.40;;
58152;SDS011;43967;51.634;5.566;2024-03-02T23:36:52;5.20;;;1.63;;
58152;SDS011;43967;51.634;5.566;2024-03-02T23:42:13;5.07;;;1.43;;
58152;SDS011;43967;51.634;5.566;2024-03-02T23:47:35;4.90;;;1.60;;
58152;SDS011;43967;51.634;5.566;2024-03-02T23:52:57;5.05;;;1.60;;
58152;SDS011;43967;51.634;5.566;2024-03-02T23:58:18;4.83;;;1.30;;
